createdAt,value
2022-12-23T00:00:57.138Z,76.89
2022-12-23T00:03:24.043Z,77.08
2022-12-23T00:05:50.826Z,77.25
2022-12-23T00:08:17.691Z,76.59
2022-12-23T00:10:44.327Z,76.36
2022-12-23T00:13:10.992Z,76.05
2022-12-23T00:15:37.641Z,75.76
2022-12-23T00:18:04.309Z,76.16
2022-12-23T00:20:30.968Z,76.46
2022-12-23T00:22:57.637Z,75.93
2022-12-23T00:25:24.295Z,75.33
2022-12-23T00:27:50.941Z,75.00
2022-12-23T00:30:17.647Z,74.65
2022-12-23T00:32:44.681Z,75.04
2022-12-23T00:35:11.328Z,75.43
2022-12-23T00:37:37.983Z,76.30
2022-12-23T00:40:06.988Z,75.63
2022-12-23T00:42:33.802Z,76.16
2022-12-23T00:45:00.462Z,75.91
2022-12-23T00:47:27.136Z,75.17
2022-12-23T00:49:53.760Z,75.81
2022-12-23T00:52:20.614Z,75.31
2022-12-23T00:54:47.283Z,75.33
2022-12-23T00:57:13.965Z,74.88
2022-12-23T00:59:40.607Z,75.26
2022-12-23T01:02:07.518Z,74.91
2022-12-23T01:04:34.259Z,75.55
2022-12-23T01:07:00.928Z,75.09
2022-12-23T01:09:27.713Z,75.35
2022-12-23T01:11:54.357Z,74.77
2022-12-23T01:14:21.004Z,75.27
2022-12-23T01:16:47.802Z,74.68
2022-12-23T01:19:14.541Z,76.06
2022-12-23T01:21:41.169Z,75.16
2022-12-23T01:24:08.101Z,74.86
2022-12-23T01:26:34.786Z,74.85
2022-12-23T01:29:01.698Z,74.66
2022-12-23T01:31:28.470Z,75.08
2022-12-23T01:33:55.214Z,75.05
2022-12-23T01:36:22.064Z,75.69
2022-12-23T01:38:48.734Z,75.27
2022-12-23T01:41:19.755Z,75.80
2022-12-23T01:43:50.406Z,75.50
2022-12-23T01:46:17.212Z,74.82
2022-12-23T01:48:50.954Z,75.47
2022-12-23T01:51:26.043Z,75.46
2022-12-23T01:53:54.784Z,76.42
2022-12-23T01:56:24.520Z,75.72
2022-12-23T01:58:53.859Z,76.41
2022-12-23T02:01:21.097Z,75.21
2022-12-23T02:03:48.098Z,74.44
2022-12-23T02:06:34.617Z,75.71
2022-12-23T02:09:01.264Z,75.34
2022-12-23T02:11:46.873Z,74.91
2022-12-23T02:14:32.221Z,75.18
2022-12-23T02:17:04.571Z,75.08
2022-12-23T02:20:04.091Z,75.02
2022-12-23T02:23:01.512Z,75.90
2022-12-23T02:25:40.490Z,74.79
2022-12-23T02:28:22.146Z,76.15
2022-12-23T02:30:51.700Z,75.36
2022-12-23T02:33:26.029Z,75.58
2022-12-23T02:35:57.927Z,75.13
2022-12-23T02:38:30.787Z,75.01
2022-12-23T02:41:00.318Z,75.41
2022-12-23T02:43:40.188Z,76.12
2022-12-23T02:46:29.908Z,76.32
2022-12-23T02:49:06.586Z,76.41
2022-12-23T02:51:35.664Z,75.36
2022-12-23T02:54:03.890Z,75.44
2022-12-23T02:56:31.218Z,75.76
2022-12-23T02:59:01.749Z,75.59
2022-12-23T03:01:28.957Z,75.87
2022-12-23T03:03:55.711Z,76.09
2022-12-23T03:06:24.888Z,75.39
2022-12-23T03:08:52.764Z,76.01
2022-12-23T03:11:19.425Z,76.48
2022-12-23T03:13:51.901Z,75.96
2022-12-23T03:16:24.872Z,75.56
2022-12-23T03:19:00.386Z,75.74
2022-12-23T03:21:32.101Z,75.31
2022-12-23T03:24:17.441Z,75.89
2022-12-23T03:26:54.850Z,77.17
2022-12-23T03:29:26.939Z,76.89
2022-12-23T03:31:53.602Z,76.96
2022-12-23T03:34:22.632Z,76.74
2022-12-23T03:36:51.579Z,76.14
2022-12-23T03:39:20.583Z,77.41
2022-12-23T03:41:49.801Z,76.75
2022-12-23T03:44:18.831Z,76.39
2022-12-23T03:46:54.565Z,76.63
2022-12-23T03:49:34.640Z,76.30
2022-12-23T03:52:04.200Z,75.76
2022-12-23T03:54:32.491Z,75.70
2022-12-23T03:57:01.550Z,76.65
2022-12-23T03:59:30.944Z,76.73
2022-12-23T04:02:06.514Z,76.88
2022-12-23T04:04:52.386Z,76.26
2022-12-23T04:07:27.934Z,76.31
2022-12-23T04:09:54.804Z,76.36
2022-12-23T04:12:22.757Z,76.50
2022-12-23T04:14:49.709Z,75.87
2022-12-23T04:17:16.573Z,75.97
2022-12-23T04:19:43.659Z,75.97
2022-12-23T04:22:10.273Z,76.23
2022-12-23T04:24:36.944Z,75.90
2022-12-23T04:27:03.612Z,75.98
2022-12-23T04:29:30.249Z,76.50
2022-12-23T04:31:56.938Z,76.64
2022-12-23T04:34:23.627Z,76.54
2022-12-23T04:36:50.265Z,76.61
2022-12-23T04:39:16.900Z,77.13
2022-12-23T04:41:43.550Z,76.48
2022-12-23T04:44:10.195Z,77.37
2022-12-23T04:46:36.910Z,76.64
2022-12-23T04:49:03.677Z,77.35
2022-12-23T04:51:30.297Z,76.80
2022-12-23T04:53:56.953Z,77.66
2022-12-23T04:56:23.868Z,77.62
2022-12-23T04:58:50.548Z,77.03
2022-12-23T05:01:17.282Z,77.42
2022-12-23T05:03:43.962Z,76.87
2022-12-23T05:06:10.710Z,77.37
2022-12-23T05:08:37.366Z,77.48
2022-12-23T05:11:04.059Z,77.55
2022-12-23T05:13:30.694Z,77.82
2022-12-23T05:15:57.388Z,77.11
2022-12-23T05:18:24.079Z,77.21
2022-12-23T05:20:50.740Z,76.66
2022-12-23T05:23:17.398Z,76.90
2022-12-23T05:25:44.059Z,75.90
2022-12-23T05:28:10.722Z,76.53
2022-12-23T05:30:37.395Z,76.73
2022-12-23T05:33:04.210Z,79.41
2022-12-23T05:35:30.947Z,79.64
2022-12-23T05:37:58.393Z,79.26
2022-12-23T05:40:27.085Z,81.15
2022-12-23T05:42:56.703Z,81.28
2022-12-23T05:45:23.368Z,81.92
2022-12-23T05:47:50.072Z,80.92
2022-12-23T05:50:16.872Z,81.28
2022-12-23T05:52:43.657Z,79.90
2022-12-23T05:55:10.397Z,79.90
2022-12-23T05:57:37.089Z,79.36
2022-12-23T06:00:04.462Z,78.48
2022-12-23T06:02:31.328Z,78.81
2022-12-23T06:04:58.127Z,78.33
2022-12-23T06:07:24.780Z,78.60
2022-12-23T06:09:51.436Z,78.37
2022-12-23T06:12:18.058Z,77.95
2022-12-23T06:14:44.680Z,78.64
2022-12-23T06:17:11.353Z,78.09
2022-12-23T06:19:37.991Z,77.96
2022-12-23T06:22:04.636Z,77.81
2022-12-23T06:24:31.278Z,77.82
2022-12-23T06:26:57.887Z,78.08
2022-12-23T06:29:24.712Z,78.35
2022-12-23T06:31:51.406Z,77.45
2022-12-23T06:34:18.072Z,77.30
2022-12-23T06:36:44.717Z,77.41
2022-12-23T06:39:11.492Z,77.79
2022-12-23T06:41:38.155Z,78.36
2022-12-23T06:44:04.991Z,77.98
2022-12-23T06:46:31.713Z,78.35
2022-12-23T06:48:58.446Z,78.05
2022-12-23T06:51:25.116Z,77.20
2022-12-23T06:53:51.776Z,78.00
2022-12-23T06:56:18.856Z,78.85
2022-12-23T06:58:45.542Z,77.88
2022-12-23T07:01:12.293Z,77.26
2022-12-23T07:03:39.292Z,78.08
2022-12-23T07:06:06.203Z,77.39
2022-12-23T07:08:32.847Z,77.25
2022-12-23T07:10:59.948Z,77.08
2022-12-23T07:13:26.746Z,78.11
2022-12-23T07:15:53.386Z,78.07
2022-12-23T07:18:21.373Z,76.99
2022-12-23T07:20:48.003Z,76.94
2022-12-23T07:23:14.659Z,77.76
2022-12-23T07:25:41.311Z,77.75
2022-12-23T07:28:07.929Z,78.58
2022-12-23T07:30:34.560Z,78.79
2022-12-23T07:33:01.273Z,78.10
2022-12-23T07:35:28.116Z,78.77
2022-12-23T07:37:55.126Z,79.63
2022-12-23T07:40:22.759Z,78.39
2022-12-23T07:42:49.983Z,79.00
2022-12-23T07:45:16.753Z,79.11
2022-12-23T07:47:43.444Z,78.40
2022-12-23T07:50:10.262Z,78.36
2022-12-23T07:52:36.979Z,78.21
2022-12-23T07:55:04.023Z,78.48
2022-12-23T07:57:30.702Z,77.85
2022-12-23T07:59:58.048Z,78.32
2022-12-23T08:02:24.994Z,78.03
2022-12-23T08:04:52.170Z,78.36
2022-12-23T08:07:19.086Z,78.16
2022-12-23T08:09:45.774Z,77.61
2022-12-23T08:12:12.452Z,77.95
2022-12-23T08:14:39.108Z,76.51
2022-12-23T08:17:06.256Z,75.67
2022-12-23T08:19:33.035Z,77.63
2022-12-23T08:21:59.668Z,77.35
2022-12-23T08:24:26.318Z,78.00
2022-12-23T08:26:52.955Z,78.02
2022-12-23T08:29:19.630Z,78.50
2022-12-23T08:31:46.296Z,77.67
2022-12-23T08:34:13.035Z,78.51
2022-12-23T08:36:39.734Z,78.28
2022-12-23T08:39:08.330Z,76.64
2022-12-23T08:41:40.686Z,78.00
2022-12-23T08:44:07.337Z,76.77
2022-12-23T08:46:34.273Z,77.19
2022-12-23T08:49:01.557Z,76.92
2022-12-23T08:51:28.433Z,77.23
2022-12-23T08:54:00.214Z,76.48
2022-12-23T08:56:29.607Z,77.03
2022-12-23T08:58:57.155Z,77.61
2022-12-23T09:01:25.819Z,77.26
2022-12-23T09:03:52.612Z,77.53
2022-12-23T09:06:30.020Z,78.24
2022-12-23T09:08:58.685Z,78.02
2022-12-23T09:11:26.303Z,78.26
2022-12-23T09:13:53.439Z,77.34
2022-12-23T09:16:20.362Z,78.14
2022-12-23T09:18:47.108Z,77.41
2022-12-23T09:21:16.011Z,77.48
2022-12-23T09:23:42.674Z,77.15
2022-12-23T09:26:09.669Z,76.72
2022-12-23T09:28:36.618Z,76.85
2022-12-23T09:31:10.020Z,76.96
2022-12-23T09:33:36.823Z,76.83
2022-12-23T09:36:03.637Z,77.11
2022-12-23T09:38:30.358Z,77.79
2022-12-23T09:41:28.907Z,78.16
2022-12-23T09:44:10.855Z,77.93
2022-12-23T09:46:38.170Z,78.45
2022-12-23T09:49:09.309Z,77.75
2022-12-23T09:51:35.936Z,77.54
2022-12-23T09:54:16.640Z,77.89
2022-12-23T09:56:52.519Z,77.89
2022-12-23T09:59:36.136Z,77.52
2022-12-23T10:02:21.555Z,77.74
2022-12-23T10:05:01.206Z,78.51
2022-12-23T10:07:49.179Z,79.96
2022-12-23T10:10:44.778Z,79.08
2022-12-23T10:13:27.857Z,79.36
2022-12-23T10:15:54.652Z,78.67
2022-12-23T10:18:44.939Z,79.22
2022-12-23T10:21:14.689Z,78.94
2022-12-23T10:23:42.592Z,78.86
2022-12-23T10:26:25.729Z,79.16
2022-12-23T10:29:18.690Z,79.19
2022-12-23T10:31:52.987Z,78.71
2022-12-23T10:34:29.983Z,79.41
2022-12-23T10:37:03.278Z,79.79
2022-12-23T10:39:56.973Z,79.83
2022-12-23T10:42:45.435Z,78.47
2022-12-23T10:45:27.206Z,79.41
2022-12-23T10:48:31.419Z,79.68
2022-12-23T10:51:04.628Z,81.62
2022-12-23T10:53:36.843Z,81.93
2022-12-23T10:56:03.935Z,81.50
2022-12-23T10:58:30.564Z,80.36
2022-12-23T11:01:04.749Z,79.99
2022-12-23T11:03:54.159Z,80.09
2022-12-23T11:06:20.892Z,80.19
2022-12-23T11:08:47.527Z,79.46
2022-12-23T11:11:14.961Z,78.66
2022-12-23T11:13:43.510Z,79.24
2022-12-23T11:16:17.673Z,79.05
2022-12-23T11:18:55.402Z,78.97
2022-12-23T11:21:22.042Z,78.48
2022-12-23T11:23:48.851Z,77.70
2022-12-23T11:26:18.961Z,77.06
2022-12-23T11:28:53.349Z,78.23
2022-12-23T11:31:26.464Z,78.25
2022-12-23T11:33:58.909Z,79.10
2022-12-23T11:36:26.264Z,77.98
2022-12-23T11:39:12.037Z,78.52
2022-12-23T11:41:45.450Z,78.85
2022-12-23T11:44:49.631Z,78.63
2022-12-23T11:47:19.119Z,77.90
2022-12-23T11:49:50.288Z,77.97
2022-12-23T11:52:23.960Z,77.58
2022-12-23T11:54:54.538Z,78.22
2022-12-23T11:57:29.387Z,78.01
2022-12-23T11:59:57.561Z,77.63
2022-12-23T12:02:40.826Z,77.43
2022-12-23T12:05:18.345Z,76.96
2022-12-23T12:07:44.999Z,78.21
2022-12-23T12:10:18.108Z,78.28
2022-12-23T12:12:47.681Z,78.41
2022-12-23T12:15:30.402Z,78.57
2022-12-23T12:17:57.046Z,78.52
2022-12-23T12:20:23.529Z,77.27
2022-12-23T12:22:52.881Z,78.04
2022-12-23T12:25:26.081Z,78.53
2022-12-23T12:27:56.265Z,78.63
2022-12-23T12:30:37.378Z,78.73
2022-12-23T12:33:29.814Z,79.07
2022-12-23T12:36:27.393Z,78.71
2022-12-23T12:38:54.097Z,79.01
2022-12-23T12:41:26.921Z,78.91
2022-12-23T12:44:30.653Z,78.62
2022-12-23T12:47:04.037Z,78.90
2022-12-23T12:49:51.485Z,78.07
2022-12-23T12:52:26.266Z,79.34
2022-12-23T12:54:56.464Z,79.77
2022-12-23T12:57:23.381Z,79.86
2022-12-23T12:59:58.634Z,79.90
2022-12-23T13:02:30.292Z,79.97
2022-12-23T13:05:02.640Z,79.50
2022-12-23T13:08:07.093Z,80.11
2022-12-23T13:10:48.329Z,79.37
2022-12-23T13:13:33.223Z,80.09
2022-12-23T13:16:22.450Z,80.32
2022-12-23T13:18:58.254Z,80.36
2022-12-23T13:21:42.945Z,81.49
2022-12-23T13:24:21.558Z,81.68
2022-12-23T13:27:02.633Z,81.08
2022-12-23T13:30:06.776Z,81.62
2022-12-23T13:33:07.433Z,82.33
2022-12-23T13:36:09.460Z,82.43
2022-12-23T13:39:11.295Z,81.88
2022-12-23T13:41:48.954Z,80.77
2022-12-23T13:44:15.645Z,80.68
2022-12-23T13:46:51.332Z,81.67
2022-12-23T13:49:39.803Z,80.84
2022-12-23T13:52:10.990Z,80.70
2022-12-23T13:54:44.954Z,79.59
2022-12-23T13:57:22.733Z,80.60
2022-12-23T14:00:23.224Z,79.14
2022-12-23T14:03:03.450Z,80.34
2022-12-23T14:05:38.483Z,78.88
2022-12-23T14:08:18.131Z,79.71
2022-12-23T14:10:57.914Z,79.64
2022-12-23T14:13:27.695Z,79.93
2022-12-23T14:16:09.639Z,79.98
2022-12-23T14:19:09.533Z,80.14
2022-12-23T14:22:01.016Z,79.69
2022-12-23T14:24:49.396Z,78.71
2022-12-23T14:27:34.666Z,79.17
2022-12-23T14:30:06.067Z,78.28
2022-12-23T14:32:59.873Z,79.18
2022-12-23T14:35:36.971Z,79.07
2022-12-23T14:38:15.624Z,79.15
2022-12-23T14:40:42.180Z,78.94
2022-12-23T14:43:29.931Z,79.13
2022-12-23T14:46:00.871Z,78.62
2022-12-23T14:48:33.489Z,80.88
2022-12-23T14:51:09.271Z,81.56
2022-12-23T14:53:51.275Z,80.29
2022-12-23T14:56:22.997Z,80.14
2022-12-23T14:58:58.302Z,79.71
2022-12-23T15:01:43.326Z,79.84
2022-12-23T15:04:13.163Z,79.50
2022-12-23T15:06:41.819Z,78.88
2022-12-23T15:09:22.849Z,78.98
2022-12-23T15:11:49.488Z,79.40
2022-12-23T15:14:30.458Z,81.28
2022-12-23T15:16:57.149Z,80.67
2022-12-23T15:19:25.490Z,80.02
2022-12-23T15:22:15.348Z,79.92
2022-12-23T15:24:46.405Z,79.94
2022-12-23T15:27:27.447Z,79.64
2022-12-23T15:29:54.857Z,78.35
2022-12-23T15:32:22.023Z,79.43
2022-12-23T15:34:49.014Z,79.10
2022-12-23T15:37:17.516Z,78.98
2022-12-23T15:39:44.303Z,79.20
2022-12-23T15:42:21.018Z,78.87
2022-12-23T15:44:47.643Z,79.43
2022-12-23T15:47:36.722Z,78.68
2022-12-23T15:50:03.852Z,79.62
2022-12-23T15:52:30.670Z,79.94
2022-12-23T15:55:01.200Z,79.20
2022-12-23T15:57:28.356Z,79.67
2022-12-23T15:59:55.398Z,79.51
2022-12-23T16:05:30.258Z,79.61
2022-12-23T16:08:12.129Z,79.63
2022-12-23T16:10:38.840Z,79.99
2022-12-23T16:13:10.534Z,79.45
2022-12-23T16:15:39.950Z,79.60
2022-12-23T16:18:14.449Z,79.19
2022-12-23T16:20:43.592Z,79.04
2022-12-23T16:23:10.552Z,78.95
2022-12-23T16:25:37.190Z,79.65
2022-12-23T16:28:08.544Z,79.01
2022-12-23T16:30:36.872Z,78.84
2022-12-23T16:33:24.975Z,79.30
2022-12-23T16:35:52.962Z,79.20
2022-12-23T16:38:24.513Z,78.96
2022-12-23T16:40:55.205Z,80.85
2022-12-23T16:43:22.646Z,81.52
2022-12-23T16:45:55.911Z,81.05
2022-12-23T16:48:33.830Z,80.09
2022-12-23T16:51:01.325Z,80.02
2022-12-23T16:53:28.008Z,80.36
2022-12-23T16:56:00.235Z,79.81
2022-12-23T16:58:27.597Z,80.41
2022-12-23T17:00:54.336Z,80.34
2022-12-23T17:03:21.044Z,80.71
2022-12-23T17:05:48.084Z,80.29
2022-12-23T17:08:14.891Z,80.74
2022-12-23T17:10:41.762Z,80.46
2022-12-23T17:13:10.242Z,80.42
2022-12-23T17:15:36.894Z,79.93
2022-12-23T17:18:03.625Z,79.80
2022-12-23T17:20:30.427Z,78.91
2022-12-23T17:22:58.098Z,79.30
2022-12-23T17:25:26.605Z,78.73
2022-12-23T17:27:53.672Z,78.42
2022-12-23T17:30:24.404Z,78.83
2022-12-23T17:32:55.582Z,78.55
2022-12-23T17:35:22.598Z,78.94
2022-12-23T17:37:49.232Z,78.60
2022-12-23T17:40:15.944Z,78.67
2022-12-23T17:42:42.576Z,78.83
2022-12-23T17:45:25.463Z,79.47
2022-12-23T17:47:52.115Z,78.93
2022-12-23T17:50:18.789Z,79.12
2022-12-23T17:52:45.436Z,78.45
2022-12-23T17:55:23.443Z,79.02
2022-12-23T17:57:50.129Z,78.39
2022-12-23T18:00:24.088Z,78.71
2022-12-23T18:02:56.356Z,79.05
2022-12-23T18:05:28.501Z,78.88
2022-12-23T18:07:56.079Z,78.60
2022-12-23T18:10:27.478Z,79.95
2022-12-23T18:12:56.203Z,80.19
2022-12-23T18:15:28.440Z,81.05
2022-12-23T18:17:55.073Z,80.79
2022-12-23T18:20:22.615Z,80.02
2022-12-23T18:22:50.622Z,80.18
2022-12-23T18:25:18.744Z,80.19
2022-12-23T18:27:45.593Z,79.75
2022-12-23T18:30:12.309Z,79.69
2022-12-23T18:32:39.030Z,80.01
2022-12-23T18:35:18.705Z,79.16
2022-12-23T18:37:45.350Z,78.79
2022-12-23T18:40:12.091Z,78.94
2022-12-23T18:42:38.733Z,79.73
2022-12-23T18:45:29.248Z,80.05
2022-12-23T18:47:56.924Z,79.42
2022-12-23T18:50:23.649Z,79.50
2022-12-23T18:52:50.796Z,79.97
2022-12-23T18:55:17.470Z,80.97
2022-12-23T18:57:44.091Z,80.41
2022-12-23T19:00:19.271Z,81.48
2022-12-23T19:02:46.206Z,80.52
2022-12-23T19:05:21.255Z,80.63
2022-12-23T19:07:47.968Z,79.73
2022-12-23T19:10:20.870Z,80.92
2022-12-23T19:12:47.544Z,79.22
2022-12-23T19:15:14.485Z,79.04
2022-12-23T19:17:41.138Z,78.81
2022-12-23T19:20:08.807Z,79.08
2022-12-23T19:22:35.456Z,77.21
2022-12-23T19:25:06.531Z,78.58
2022-12-23T19:27:33.626Z,77.39
2022-12-23T19:30:00.252Z,77.52
2022-12-23T19:32:26.944Z,77.02
2022-12-23T19:34:53.568Z,76.86
2022-12-23T19:37:20.231Z,76.59
2022-12-23T19:39:46.880Z,77.32
2022-12-23T19:42:13.512Z,77.00
2022-12-23T19:44:40.180Z,78.51
2022-12-23T19:47:06.846Z,78.83
2022-12-23T19:49:33.583Z,79.68
2022-12-23T19:52:00.887Z,79.86
2022-12-23T19:54:27.570Z,81.36
2022-12-23T19:56:54.219Z,81.50
2022-12-23T19:59:20.848Z,82.37
2022-12-23T20:01:47.570Z,81.91
2022-12-23T20:04:15.161Z,83.18
2022-12-23T20:06:41.841Z,83.44
2022-12-23T20:09:09.971Z,83.38
2022-12-23T20:11:41.272Z,82.90
2022-12-23T20:14:07.905Z,82.67
2022-12-23T20:16:34.705Z,82.36
2022-12-23T20:19:01.713Z,82.26
2022-12-23T20:21:28.368Z,82.74
2022-12-23T20:23:55.049Z,82.73
2022-12-23T20:26:21.676Z,82.27
2022-12-23T20:28:48.303Z,81.77
2022-12-23T20:31:16.273Z,81.57
2022-12-23T20:33:42.938Z,81.42
2022-12-23T20:36:10.299Z,81.03
2022-12-23T20:38:37.451Z,81.82
2022-12-23T20:41:04.528Z,82.88
2022-12-23T20:43:31.596Z,82.19
2022-12-23T20:45:58.316Z,82.68
2022-12-23T20:48:31.680Z,81.92
2022-12-23T20:51:04.931Z,80.20
2022-12-23T20:53:31.615Z,79.86
2022-12-23T20:56:02.621Z,80.51
2022-12-23T20:58:29.322Z,79.94
2022-12-23T21:00:56.053Z,79.98
2022-12-23T21:03:22.774Z,80.38
2022-12-23T21:05:49.500Z,80.44
2022-12-23T21:08:16.157Z,79.87
2022-12-23T21:10:42.762Z,80.82
2022-12-23T21:13:09.481Z,80.10
2022-12-23T21:15:36.131Z,79.53
2022-12-23T21:18:02.779Z,79.25
2022-12-23T21:20:29.468Z,79.17
2022-12-23T21:22:56.163Z,77.98
2022-12-23T21:25:22.784Z,77.68
2022-12-23T21:27:50.735Z,78.49
2022-12-23T21:30:17.432Z,78.04
2022-12-23T21:32:44.071Z,77.93
2022-12-23T21:35:10.730Z,77.94
2022-12-23T21:37:37.392Z,77.23
2022-12-23T21:40:04.514Z,76.58
2022-12-23T21:42:31.131Z,76.71
2022-12-23T21:44:57.782Z,76.95
2022-12-23T21:47:24.448Z,76.66
2022-12-23T21:49:51.085Z,76.89
2022-12-23T21:52:17.822Z,77.28
2022-12-23T21:54:44.499Z,77.15
2022-12-23T21:57:11.143Z,76.50
2022-12-23T21:59:37.963Z,76.18
2022-12-23T22:02:04.703Z,76.43
2022-12-23T22:04:31.417Z,76.03
2022-12-23T22:06:58.088Z,76.75
2022-12-23T22:09:24.765Z,76.33
2022-12-23T22:11:51.434Z,76.43
2022-12-23T22:14:18.661Z,75.76
2022-12-23T22:16:45.521Z,76.29
2022-12-23T22:19:12.238Z,76.60
2022-12-23T22:21:39.232Z,76.24
2022-12-23T22:24:06.305Z,76.94
2022-12-23T22:26:32.970Z,76.98
2022-12-23T22:29:00.785Z,76.18
2022-12-23T22:31:40.627Z,76.54
2022-12-23T22:34:07.491Z,76.90
2022-12-23T22:36:34.245Z,77.34
2022-12-23T22:39:01.444Z,76.88
2022-12-23T22:41:28.555Z,77.06
2022-12-23T22:43:55.451Z,76.06
2022-12-23T22:46:22.397Z,75.41
2022-12-23T22:48:49.133Z,76.18
2022-12-23T22:51:25.528Z,76.04
2022-12-23T22:53:52.179Z,75.55
2022-12-23T22:56:19.667Z,75.37
2022-12-23T22:58:46.850Z,76.21
2022-12-23T23:01:22.552Z,76.28
2022-12-23T23:03:52.672Z,75.54
2022-12-23T23:06:19.295Z,75.02
2022-12-23T23:08:46.067Z,74.48
2022-12-23T23:11:12.715Z,74.54
2022-12-23T23:13:39.377Z,74.50
2022-12-23T23:16:06.425Z,74.85
2022-12-23T23:18:33.168Z,75.41
2022-12-23T23:20:59.917Z,74.88
2022-12-23T23:23:26.821Z,75.58
2022-12-23T23:25:53.460Z,75.74
2022-12-23T23:28:20.112Z,75.92
2022-12-23T23:30:46.752Z,75.39
2022-12-23T23:33:13.382Z,75.70
2022-12-23T23:35:40.343Z,75.94
2022-12-23T23:38:07.730Z,75.61
2022-12-23T23:40:34.390Z,75.56
2022-12-23T23:43:01.041Z,75.55
2022-12-23T23:45:30.600Z,75.30
2022-12-23T23:47:57.326Z,75.63
2022-12-23T23:50:24.042Z,76.20
2022-12-23T23:52:50.657Z,75.65
2022-12-23T23:55:17.322Z,76.05
2022-12-23T23:57:43.967Z,75.82
